Hauptseite
METAR-TAF:

METAR-TAF

Flughäfen :

Brescia, Italien

Montichiari

Breite: 45-24-02N, Länge: 010-18-59E, Höhe: 104 m

Beobachtung

Neuester Wetterbericht von vor 1 Stunde und 10 Minuten, um 18:50 UTC
Wind 2 kt aus Südwest
Temperatur 4°C
Luftfeuchtigkeit 75%
Luftdruck 1014 hPa
Sichtweite 10 km oder mehr
keine Wolken unter 1500 m und keine Kumulonimbus oder Gewitterwolken

METAR: LIPO 221850Z 23002KT CAVOK 04/M00 Q1014

Zeit: 21:00 (20:00 UTC)

Prognose

Neuester Wetterbericht von vor 3 Stunden und 0 Minuten, um 17:00 UTC
Gültige Prognose vom 22 um 18 UTC bis 23 um 18 UTC
Wind 5 kt aus unterschiedlichen Richtungen
Sichtweite 10 km oder mehr
keine Wolken unter 1500 m und keine Kumulonimbus oder Gewitterwolken
Zeitweise
vom 23 um 02 UTC bis 23 um 07 UTC
Sichtweite: 3500 m
feuchter Dunst

TAF: LIPO 221700Z 2218/2318 VRB05KT CAVOK TEMPO 2302/2307 3500 BR

Wetterbeobachtungen und Prognosen von mehr als 4000 Flughäfen (METAR und TAF Bericht).

Die verfügbaren Stationen werden durch gelbe und rote Markierungen auf der Karte dargestellt.

Führen Sie die Maus auf sie, um den Namen der Station zu sehen.

Darauf klicken, um die Beobachtung von Wetterbeobachtungen und Prognosen zu sehen.

Um die Karte zu ändern : klicken Sie auf den grünen Tasten mit einem schwarzen Kreuz Zum Vergrößern, auf den grünen Button mit einem Gedankenstrich zu verkleinern, oder auf die grünen Pfeile für benachbarte Karten.


METAR-TAF: